sensor_id;sensor_type;location;lat;lon;timestamp;P1;durP1;ratioP1;P2;durP2;ratioP2
17965;SDS011;9108;53.204;10.424;2023-01-01T00:01:13;10.98;;;2.75;;
17965;SDS011;9108;53.204;10.424;2023-01-01T00:03:45;12.85;;;3.00;;
17965;SDS011;9108;53.204;10.424;2023-01-01T00:06:14;10.90;;;2.80;;
17965;SDS011;9108;53.204;10.424;2023-01-01T00:08:41;14.43;;;3.13;;
17965;SDS011;9108;53.204;10.424;2023-01-01T00:11:09;15.43;;;3.33;;
17965;SDS011;9108;53.204;10.424;2023-01-01T00:13:35;15.02;;;3.10;;
17965;SDS011;9108;53.204;10.424;2023-01-01T00:16:03;14.77;;;3.22;;
17965;SDS011;9108;53.204;10.424;2023-01-01T00:18:30;13.60;;;2.92;;
17965;SDS011;9108;53.204;10.424;2023-01-01T00:21:03;15.68;;;2.83;;
17965;SDS011;9108;53.204;10.424;2023-01-01T00:23:30;16.00;;;2.67;;
17965;SDS011;9108;53.204;10.424;2023-01-01T00:25:57;13.98;;;2.80;;
17965;SDS011;9108;53.204;10.424;2023-01-01T00:28:24;14.50;;;3.07;;
17965;SDS011;9108;53.204;10.424;2023-01-01T00:30:51;16.63;;;2.92;;
17965;SDS011;9108;53.204;10.424;2023-01-01T00:33:19;17.48;;;3.20;;
17965;SDS011;9108;53.204;10.424;2023-01-01T00:35:46;14.27;;;3.33;;
17965;SDS011;9108;53.204;10.424;2023-01-01T00:38:14;16.30;;;3.00;;
17965;SDS011;9108;53.204;10.424;2023-01-01T00:40:42;15.65;;;3.25;;
17965;SDS011;9108;53.204;10.424;2023-01-01T00:43:09;12.87;;;2.77;;
17965;SDS011;9108;53.204;10.424;2023-01-01T00:45:36;13.13;;;3.17;;
17965;SDS011;9108;53.204;10.424;2023-01-01T00:48:03;11.13;;;2.50;;
17965;SDS011;9108;53.204;10.424;2023-01-01T00:50:30;14.30;;;3.20;;
17965;SDS011;9108;53.204;10.424;2023-01-01T00:52:58;12.97;;;3.13;;
17965;SDS011;9108;53.204;10.424;2023-01-01T00:55:26;17.85;;;3.28;;
17965;SDS011;9108;53.204;10.424;2023-01-01T00:57:53;16.30;;;3.58;;
17965;SDS011;9108;53.204;10.424;2023-01-01T01:00:20;13.23;;;3.10;;
17965;SDS011;9108;53.204;10.424;2023-01-01T01:02:48;14.90;;;3.20;;
17965;SDS011;9108;53.204;10.424;2023-01-01T01:05:15;16.30;;;3.47;;
17965;SDS011;9108;53.204;10.424;2023-01-01T01:07:42;13.18;;;3.22;;
17965;SDS011;9108;53.204;10.424;2023-01-01T01:10:09;16.23;;;3.33;;
17965;SDS011;9108;53.204;10.424;2023-01-01T01:12:38;13.35;;;3.60;;
17965;SDS011;9108;53.204;10.424;2023-01-01T01:15:06;19.52;;;3.70;;
17965;SDS011;9108;53.204;10.424;2023-01-01T01:17:33;17.25;;;3.47;;
17965;SDS011;9108;53.204;10.424;2023-01-01T01:20:00;17.77;;;3.30;;
17965;SDS011;9108;53.204;10.424;2023-01-01T01:22:27;16.02;;;3.38;;
17965;SDS011;9108;53.204;10.424;2023-01-01T01:24:55;17.15;;;3.40;;
17965;SDS011;9108;53.204;10.424;2023-01-01T01:27:22;16.17;;;3.83;;
17965;SDS011;9108;53.204;10.424;2023-01-01T01:29:51;15.77;;;3.70;;
17965;SDS011;9108;53.204;10.424;2023-01-01T01:32:18;18.08;;;3.70;;
17965;SDS011;9108;53.204;10.424;2023-01-01T01:34:45;14.13;;;3.50;;
17965;SDS011;9108;53.204;10.424;2023-01-01T01:37:13;18.90;;;3.70;;
17965;SDS011;9108;53.204;10.424;2023-01-01T01:39:40;15.73;;;3.60;;
17965;SDS011;9108;53.204;10.424;2023-01-01T01:42:10;14.48;;;3.70;;
17965;SDS011;9108;53.204;10.424;2023-01-01T01:44:53;17.35;;;3.97;;
17965;SDS011;9108;53.204;10.424;2023-01-01T01:47:22;16.90;;;3.95;;
17965;SDS011;9108;53.204;10.424;2023-01-01T01:49:50;20.40;;;4.20;;
17965;SDS011;9108;53.204;10.424;2023-01-01T01:52:18;16.00;;;4.03;;
17965;SDS011;9108;53.204;10.424;2023-01-01T01:54:45;15.00;;;4.00;;
17965;SDS011;9108;53.204;10.424;2023-01-01T01:57:12;13.20;;;3.88;;
17965;SDS011;9108;53.204;10.424;2023-01-01T01:59:41;17.50;;;4.20;;
17965;SDS011;9108;53.204;10.424;2023-01-01T02:02:11;17.17;;;4.00;;
17965;SDS011;9108;53.204;10.424;2023-01-01T02:04:40;20.50;;;4.50;;
17965;SDS011;9108;53.204;10.424;2023-01-01T02:07:08;16.63;;;4.20;;
17965;SDS011;9108;53.204;10.424;2023-01-01T02:09:35;16.92;;;4.28;;
17965;SDS011;9108;53.204;10.424;2023-01-01T02:12:02;17.77;;;4.43;;
17965;SDS011;9108;53.204;10.424;2023-01-01T02:14:29;14.45;;;4.30;;
17965;SDS011;9108;53.204;10.424;2023-01-01T02:16:59;18.10;;;4.07;;
17965;SDS011;9108;53.204;10.424;2023-01-01T02:19:33;15.57;;;3.65;;
17965;SDS011;9108;53.204;10.424;2023-01-01T02:22:05;15.52;;;4.32;;
17965;SDS011;9108;53.204;10.424;2023-01-01T02:24:42;18.90;;;4.30;;
17965;SDS011;9108;53.204;10.424;2023-01-01T02:27:16;14.95;;;4.55;;
17965;SDS011;9108;53.204;10.424;2023-01-01T02:29:49;17.10;;;4.10;;
17965;SDS011;9108;53.204;10.424;2023-01-01T02:32:19;14.35;;;4.20;;
17965;SDS011;9108;53.204;10.424;2023-01-01T02:34:47;15.93;;;4.30;;
17965;SDS011;9108;53.204;10.424;2023-01-01T02:37:16;17.60;;;4.20;;
17965;SDS011;9108;53.204;10.424;2023-01-01T02:39:46;17.23;;;4.00;;
17965;SDS011;9108;53.204;10.424;2023-01-01T02:42:14;22.00;;;4.90;;
17965;SDS011;9108;53.204;10.424;2023-01-01T02:44:46;13.30;;;3.88;;
17965;SDS011;9108;53.204;10.424;2023-01-01T02:47:16;14.50;;;3.65;;
17965;SDS011;9108;53.204;10.424;2023-01-01T02:49:47;17.17;;;4.45;;
17965;SDS011;9108;53.204;10.424;2023-01-01T02:52:18;15.77;;;4.17;;
17965;SDS011;9108;53.204;10.424;2023-01-01T02:54:49;20.83;;;4.88;;
17965;SDS011;9108;53.204;10.424;2023-01-01T02:57:22;14.10;;;3.80;;
17965;SDS011;9108;53.204;10.424;2023-01-01T02:59:55;13.65;;;3.70;;
17965;SDS011;9108;53.204;10.424;2023-01-01T03:02:50;16.40;;;3.97;;
17965;SDS011;9108;53.204;10.424;2023-01-01T03:05:19;17.05;;;4.15;;
17965;SDS011;9108;53.204;10.424;2023-01-01T03:07:52;10.93;;;3.80;;
17965;SDS011;9108;53.204;10.424;2023-01-01T03:10:32;13.10;;;3.67;;
17965;SDS011;9108;53.204;10.424;2023-01-01T03:13:05;13.73;;;3.77;;
17965;SDS011;9108;53.204;10.424;2023-01-01T03:15:41;15.07;;;3.92;;
17965;SDS011;9108;53.204;10.424;2023-01-01T03:18:13;17.33;;;4.10;;
17965;SDS011;9108;53.204;10.424;2023-01-01T03:20:43;14.60;;;3.65;;
17965;SDS011;9108;53.204;10.424;2023-01-01T03:23:12;17.85;;;4.22;;
17965;SDS011;9108;53.204;10.424;2023-01-01T03:25:42;16.02;;;4.00;;
17965;SDS011;9108;53.204;10.424;2023-01-01T03:28:12;12.60;;;3.97;;
17965;SDS011;9108;53.204;10.424;2023-01-01T03:30:40;14.60;;;4.18;;
17965;SDS011;9108;53.204;10.424;2023-01-01T03:33:10;15.30;;;4.10;;
17965;SDS011;9108;53.204;10.424;2023-01-01T03:35:42;14.73;;;4.10;;
17965;SDS011;9108;53.204;10.424;2023-01-01T03:38:13;12.50;;;4.28;;
17965;SDS011;9108;53.204;10.424;2023-01-01T03:40:41;15.80;;;4.13;;
17965;SDS011;9108;53.204;10.424;2023-01-01T03:43:11;13.82;;;4.03;;
17965;SDS011;9108;53.204;10.424;2023-01-01T03:45:40;13.65;;;4.10;;
17965;SDS011;9108;53.204;10.424;2023-01-01T03:48:08;13.57;;;4.30;;
17965;SDS011;9108;53.204;10.424;2023-01-01T03:50:38;15.90;;;4.57;;
17965;SDS011;9108;53.204;10.424;2023-01-01T03:53:08;14.93;;;4.82;;
17965;SDS011;9108;53.204;10.424;2023-01-01T03:55:38;14.90;;;4.57;;
17965;SDS011;9108;53.204;10.424;2023-01-01T03:58:10;14.23;;;4.68;;
17965;SDS011;9108;53.204;10.424;2023-01-01T04:00:41;16.97;;;4.50;;
17965;SDS011;9108;53.204;10.424;2023-01-01T04:03:13;14.60;;;4.60;;
17965;SDS011;9108;53.204;10.424;2023-01-01T04:05:42;16.63;;;4.63;;
17965;SDS011;9108;53.204;10.424;2023-01-01T04:08:11;18.00;;;4.85;;
17965;SDS011;9108;53.204;10.424;2023-01-01T04:10:40;15.85;;;4.68;;
17965;SDS011;9108;53.204;10.424;2023-01-01T04:13:08;19.08;;;4.85;;
17965;SDS011;9108;53.204;10.424;2023-01-01T04:15:37;16.02;;;4.80;;
17965;SDS011;9108;53.204;10.424;2023-01-01T04:18:04;16.67;;;5.03;;
17965;SDS011;9108;53.204;10.424;2023-01-01T04:20:32;15.68;;;4.93;;
17965;SDS011;9108;53.204;10.424;2023-01-01T04:23:01;15.05;;;4.88;;
17965;SDS011;9108;53.204;10.424;2023-01-01T04:25:30;15.63;;;5.20;;
17965;SDS011;9108;53.204;10.424;2023-01-01T04:27:57;14.25;;;5.22;;
17965;SDS011;9108;53.204;10.424;2023-01-01T04:30:27;14.10;;;5.30;;
17965;SDS011;9108;53.204;10.424;2023-01-01T04:32:55;18.90;;;5.13;;
17965;SDS011;9108;53.204;10.424;2023-01-01T04:35:22;15.45;;;5.03;;
17965;SDS011;9108;53.204;10.424;2023-01-01T04:37:49;18.70;;;5.63;;
17965;SDS011;9108;53.204;10.424;2023-01-01T04:40:16;15.77;;;5.40;;
17965;SDS011;9108;53.204;10.424;2023-01-01T04:42:45;17.58;;;5.60;;
17965;SDS011;9108;53.204;10.424;2023-01-01T04:45:12;19.33;;;5.53;;
17965;SDS011;9108;53.204;10.424;2023-01-01T04:47:39;17.23;;;6.03;;
17965;SDS011;9108;53.204;10.424;2023-01-01T04:50:07;19.25;;;6.13;;
17965;SDS011;9108;53.204;10.424;2023-01-01T04:52:34;20.13;;;6.45;;
17965;SDS011;9108;53.204;10.424;2023-01-01T04:55:01;21.42;;;6.63;;
17965;SDS011;9108;53.204;10.424;2023-01-01T04:57:28;18.48;;;6.50;;
17965;SDS011;9108;53.204;10.424;2023-01-01T04:59:57;22.10;;;7.00;;
17965;SDS011;9108;53.204;10.424;2023-01-01T05:02:24;21.33;;;7.00;;
17965;SDS011;9108;53.204;10.424;2023-01-01T05:04:51;19.65;;;6.32;;
17965;SDS011;9108;53.204;10.424;2023-01-01T05:07:19;19.63;;;6.50;;
17965;SDS011;9108;53.204;10.424;2023-01-01T05:09:46;24.65;;;6.70;;
17965;SDS011;9108;53.204;10.424;2023-01-01T05:12:13;22.83;;;6.32;;
17965;SDS011;9108;53.204;10.424;2023-01-01T05:14:40;19.00;;;6.50;;
17965;SDS011;9108;53.204;10.424;2023-01-01T05:17:08;20.15;;;6.75;;
17965;SDS011;9108;53.204;10.424;2023-01-01T05:19:35;20.38;;;6.57;;
17965;SDS011;9108;53.204;10.424;2023-01-01T05:22:03;20.67;;;6.60;;
17965;SDS011;9108;53.204;10.424;2023-01-01T05:24:30;20.80;;;7.20;;
17965;SDS011;9108;53.204;10.424;2023-01-01T05:27:00;24.50;;;7.43;;
17965;SDS011;9108;53.204;10.424;2023-01-01T05:29:27;23.60;;;7.07;;
17965;SDS011;9108;53.204;10.424;2023-01-01T05:31:54;21.92;;;6.95;;
17965;SDS011;9108;53.204;10.424;2023-01-01T05:34:23;20.90;;;7.63;;
17965;SDS011;9108;53.204;10.424;2023-01-01T05:36:50;19.63;;;6.97;;
17965;SDS011;9108;53.204;10.424;2023-01-01T05:39:17;22.80;;;6.85;;
17965;SDS011;9108;53.204;10.424;2023-01-01T05:41:44;21.42;;;7.25;;
17965;SDS011;9108;53.204;10.424;2023-01-01T05:44:11;18.10;;;6.53;;
17965;SDS011;9108;53.204;10.424;2023-01-01T05:46:40;19.63;;;6.43;;
17965;SDS011;9108;53.204;10.424;2023-01-01T05:49:08;19.17;;;6.72;;
17965;SDS011;9108;53.204;10.424;2023-01-01T05:51:37;17.90;;;6.32;;
17965;SDS011;9108;53.204;10.424;2023-01-01T05:54:05;18.20;;;6.47;;
17965;SDS011;9108;53.204;10.424;2023-01-01T05:56:32;18.48;;;6.05;;
17965;SDS011;9108;53.204;10.424;2023-01-01T05:58:59;17.92;;;6.10;;
17965;SDS011;9108;53.204;10.424;2023-01-01T06:01:27;18.92;;;6.00;;
17965;SDS011;9108;53.204;10.424;2023-01-01T06:03:55;18.10;;;5.78;;
17965;SDS011;9108;53.204;10.424;2023-01-01T06:06:23;15.57;;;5.70;;
17965;SDS011;9108;53.204;10.424;2023-01-01T06:08:52;15.57;;;5.63;;
17965;SDS011;9108;53.204;10.424;2023-01-01T06:11:20;18.40;;;5.72;;
17965;SDS011;9108;53.204;10.424;2023-01-01T06:13:47;17.10;;;5.22;;
17965;SDS011;9108;53.204;10.424;2023-01-01T06:16:14;15.52;;;5.15;;
17965;SDS011;9108;53.204;10.424;2023-01-01T06:18:41;21.60;;;5.20;;
17965;SDS011;9108;53.204;10.424;2023-01-01T06:21:09;16.38;;;5.28;;
17965;SDS011;9108;53.204;10.424;2023-01-01T06:23:37;15.43;;;4.90;;
17965;SDS011;9108;53.204;10.424;2023-01-01T06:26:09;12.80;;;4.90;;
17965;SDS011;9108;53.204;10.424;2023-01-01T06:28:37;15.85;;;4.95;;
17965;SDS011;9108;53.204;10.424;2023-01-01T06:31:05;13.40;;;4.72;;
17965;SDS011;9108;53.204;10.424;2023-01-01T06:33:32;13.20;;;4.30;;
17965;SDS011;9108;53.204;10.424;2023-01-01T06:36:00;13.48;;;4.40;;
17965;SDS011;9108;53.204;10.424;2023-01-01T06:38:29;10.55;;;3.90;;
17965;SDS011;9108;53.204;10.424;2023-01-01T06:40:56;11.30;;;3.80;;
17965;SDS011;9108;53.204;10.424;2023-01-01T06:43:25;15.23;;;4.07;;
17965;SDS011;9108;53.204;10.424;2023-01-01T06:45:59;13.30;;;3.70;;
17965;SDS011;9108;53.204;10.424;2023-01-01T06:48:27;10.75;;;3.63;;
17965;SDS011;9108;53.204;10.424;2023-01-01T06:50:54;12.38;;;3.60;;
17965;SDS011;9108;53.204;10.424;2023-01-01T06:53:22;12.45;;;3.55;;
17965;SDS011;9108;53.204;10.424;2023-01-01T06:55:49;8.68;;;2.90;;
17965;SDS011;9108;53.204;10.424;2023-01-01T06:58:16;10.43;;;3.30;;
17965;SDS011;9108;53.204;10.424;2023-01-01T07:00:45;12.23;;;3.30;;
17965;SDS011;9108;53.204;10.424;2023-01-01T07:03:12;9.40;;;3.13;;
17965;SDS011;9108;53.204;10.424;2023-01-01T07:05:39;8.63;;;2.80;;
17965;SDS011;9108;53.204;10.424;2023-01-01T07:08:06;6.30;;;2.28;;
17965;SDS011;9108;53.204;10.424;2023-01-01T07:10:33;10.55;;;2.83;;
17965;SDS011;9108;53.204;10.424;2023-01-01T07:13:00;12.65;;;2.80;;
17965;SDS011;9108;53.204;10.424;2023-01-01T07:15:28;12.20;;;2.58;;
17965;SDS011;9108;53.204;10.424;2023-01-01T07:17:56;9.35;;;2.70;;
17965;SDS011;9108;53.204;10.424;2023-01-01T07:20:24;11.50;;;2.70;;
17965;SDS011;9108;53.204;10.424;2023-01-01T07:22:51;9.48;;;2.45;;
17965;SDS011;9108;53.204;10.424;2023-01-01T07:25:18;12.98;;;2.70;;
17965;SDS011;9108;53.204;10.424;2023-01-01T07:27:45;8.53;;;2.50;;
17965;SDS011;9108;53.204;10.424;2023-01-01T07:30:12;11.00;;;2.50;;
17965;SDS011;9108;53.204;10.424;2023-01-01T07:32:39;11.10;;;2.20;;
17965;SDS011;9108;53.204;10.424;2023-01-01T07:35:08;7.57;;;2.25;;
17965;SDS011;9108;53.204;10.424;2023-01-01T07:37:35;8.77;;;2.20;;
17965;SDS011;9108;53.204;10.424;2023-01-01T07:40:03;6.22;;;1.85;;
17965;SDS011;9108;53.204;10.424;2023-01-01T07:42:30;9.48;;;2.17;;
17965;SDS011;9108;53.204;10.424;2023-01-01T07:44:57;7.38;;;2.00;;
17965;SDS011;9108;53.204;10.424;2023-01-01T07:47:24;9.98;;;2.08;;
17965;SDS011;9108;53.204;10.424;2023-01-01T07:49:52;7.68;;;1.80;;
17965;SDS011;9108;53.204;10.424;2023-01-01T07:52:20;7.97;;;1.90;;
17965;SDS011;9108;53.204;10.424;2023-01-01T07:54:47;9.57;;;1.90;;
17965;SDS011;9108;53.204;10.424;2023-01-01T07:57:14;7.22;;;1.77;;
17965;SDS011;9108;53.204;10.424;2023-01-01T07:59:42;7.57;;;1.80;;
17965;SDS011;9108;53.204;10.424;2023-01-01T08:02:09;8.75;;;1.80;;
17965;SDS011;9108;53.204;10.424;2023-01-01T08:04:37;7.95;;;1.75;;
17965;SDS011;9108;53.204;10.424;2023-01-01T08:07:04;8.13;;;1.90;;
17965;SDS011;9108;53.204;10.424;2023-01-01T08:09:33;7.07;;;1.67;;
17965;SDS011;9108;53.204;10.424;2023-01-01T08:12:00;5.85;;;1.60;;
17965;SDS011;9108;53.204;10.424;2023-01-01T08:14:27;6.72;;;1.80;;
17965;SDS011;9108;53.204;10.424;2023-01-01T08:16:54;6.72;;;1.95;;
17965;SDS011;9108;53.204;10.424;2023-01-01T08:19:21;8.70;;;1.70;;
17965;SDS011;9108;53.204;10.424;2023-01-01T08:21:48;9.57;;;1.90;;
17965;SDS011;9108;53.204;10.424;2023-01-01T08:24:15;8.43;;;1.80;;
17965;SDS011;9108;53.204;10.424;2023-01-01T08:26:44;9.93;;;1.88;;
17965;SDS011;9108;53.204;10.424;2023-01-01T08:29:14;7.40;;;1.63;;
17965;SDS011;9108;53.204;10.424;2023-01-01T08:31:41;5.80;;;1.63;;
17965;SDS011;9108;53.204;10.424;2023-01-01T08:34:08;8.05;;;1.67;;
17965;SDS011;9108;53.204;10.424;2023-01-01T08:36:36;7.00;;;1.58;;
17965;SDS011;9108;53.204;10.424;2023-01-01T08:39:04;7.88;;;1.70;;
17965;SDS011;9108;53.204;10.424;2023-01-01T08:41:31;6.13;;;1.70;;
17965;SDS011;9108;53.204;10.424;2023-01-01T08:44:00;8.07;;;1.58;;
17965;SDS011;9108;53.204;10.424;2023-01-01T08:46:27;6.40;;;1.60;;
17965;SDS011;9108;53.204;10.424;2023-01-01T08:48:54;7.63;;;1.70;;
17965;SDS011;9108;53.204;10.424;2023-01-01T08:51:23;7.10;;;1.90;;
17965;SDS011;9108;53.204;10.424;2023-01-01T08:53:50;7.95;;;1.30;;
17965;SDS011;9108;53.204;10.424;2023-01-01T08:56:17;7.80;;;1.73;;
17965;SDS011;9108;53.204;10.424;2023-01-01T08:58:45;9.90;;;1.70;;
17965;SDS011;9108;53.204;10.424;2023-01-01T09:01:13;7.90;;;1.40;;
17965;SDS011;9108;53.204;10.424;2023-01-01T09:03:41;6.13;;;1.77;;
17965;SDS011;9108;53.204;10.424;2023-01-01T09:06:08;5.82;;;1.70;;
17965;SDS011;9108;53.204;10.424;2023-01-01T09:08:35;6.78;;;2.20;;
17965;SDS011;9108;53.204;10.424;2023-01-01T09:11:04;7.47;;;1.63;;
17965;SDS011;9108;53.204;10.424;2023-01-01T09:13:31;7.95;;;1.63;;
17965;SDS011;9108;53.204;10.424;2023-01-01T09:15:59;6.82;;;1.55;;
17965;SDS011;9108;53.204;10.424;2023-01-01T09:18:27;6.70;;;1.90;;
17965;SDS011;9108;53.204;10.424;2023-01-01T09:20:54;9.88;;;1.70;;
17965;SDS011;9108;53.204;10.424;2023-01-01T09:23:21;9.20;;;2.20;;
17965;SDS011;9108;53.204;10.424;2023-01-01T09:25:49;7.30;;;1.95;;
17965;SDS011;9108;53.204;10.424;2023-01-01T09:28:16;6.70;;;1.75;;
17965;SDS011;9108;53.204;10.424;2023-01-01T09:30:43;6.22;;;1.60;;
17965;SDS011;9108;53.204;10.424;2023-01-01T09:33:10;9.18;;;1.88;;
17965;SDS011;9108;53.204;10.424;2023-01-01T09:35:38;7.97;;;1.60;;
17965;SDS011;9108;53.204;10.424;2023-01-01T09:38:08;7.50;;;1.50;;
17965;SDS011;9108;53.204;10.424;2023-01-01T09:40:39;8.60;;;1.60;;
17965;SDS011;9108;53.204;10.424;2023-01-01T09:43:12;7.55;;;1.80;;
17965;SDS011;9108;53.204;10.424;2023-01-01T09:45:54;8.88;;;1.90;;
17965;SDS011;9108;53.204;10.424;2023-01-01T09:48:22;7.32;;;1.63;;
17965;SDS011;9108;53.204;10.424;2023-01-01T09:50:52;9.05;;;1.50;;
17965;SDS011;9108;53.204;10.424;2023-01-01T09:53:20;5.28;;;1.48;;
17965;SDS011;9108;53.204;10.424;2023-01-01T09:55:49;7.27;;;1.60;;
17965;SDS011;9108;53.204;10.424;2023-01-01T09:58:17;7.38;;;1.40;;
17965;SDS011;9108;53.204;10.424;2023-01-01T10:00:45;5.80;;;1.50;;
17965;SDS011;9108;53.204;10.424;2023-01-01T10:03:19;7.05;;;1.55;;
17965;SDS011;9108;53.204;10.424;2023-01-01T10:05:53;10.70;;;1.52;;
17965;SDS011;9108;53.204;10.424;2023-01-01T10:08:27;5.07;;;1.17;;
17965;SDS011;9108;53.204;10.424;2023-01-01T10:10:58;5.83;;;1.10;;
17965;SDS011;9108;53.204;10.424;2023-01-01T10:13:27;6.07;;;1.33;;
17965;SDS011;9108;53.204;10.424;2023-01-01T10:15:58;5.83;;;1.30;;
17965;SDS011;9108;53.204;10.424;2023-01-01T10:18:28;4.83;;;1.13;;
17965;SDS011;9108;53.204;10.424;2023-01-01T10:21:00;8.43;;;1.13;;
17965;SDS011;9108;53.204;10.424;2023-01-01T10:23:29;7.40;;;1.60;;
17965;SDS011;9108;53.204;10.424;2023-01-01T10:25:57;8.13;;;1.47;;
17965;SDS011;9108;53.204;10.424;2023-01-01T10:28:28;7.43;;;1.57;;
17965;SDS011;9108;53.204;10.424;2023-01-01T10:31:04;8.10;;;1.43;;
17965;SDS011;9108;53.204;10.424;2023-01-01T10:33:37;4.97;;;1.40;;
17965;SDS011;9108;53.204;10.424;2023-01-01T10:36:06;5.17;;;1.20;;
17965;SDS011;9108;53.204;10.424;2023-01-01T10:38:35;3.77;;;0.90;;
17965;SDS011;9108;53.204;10.424;2023-01-01T10:41:05;7.03;;;1.43;;
17965;SDS011;9108;53.204;10.424;2023-01-01T10:43:33;6.80;;;1.17;;
17965;SDS011;9108;53.204;10.424;2023-01-01T10:46:00;10.10;;;1.30;;
17965;SDS011;9108;53.204;10.424;2023-01-01T10:48:27;4.70;;;1.30;;
17965;SDS011;9108;53.204;10.424;2023-01-01T10:50:55;3.90;;;0.97;;
17965;SDS011;9108;53.204;10.424;2023-01-01T10:53:28;4.20;;;0.80;;
17965;SDS011;9108;53.204;10.424;2023-01-01T10:55:57;4.73;;;0.90;;
17965;SDS011;9108;53.204;10.424;2023-01-01T10:58:25;3.10;;;0.93;;
17965;SDS011;9108;53.204;10.424;2023-01-01T11:00:56;3.93;;;0.97;;
17965;SDS011;9108;53.204;10.424;2023-01-01T11:03:23;5.60;;;1.00;;
17965;SDS011;9108;53.204;10.424;2023-01-01T11:05:59;5.17;;;1.10;;
17965;SDS011;9108;53.204;10.424;2023-01-01T11:08:28;7.43;;;0.90;;
17965;SDS011;9108;53.204;10.424;2023-01-01T11:10:55;3.27;;;0.90;;
17965;SDS011;9108;53.204;10.424;2023-01-01T11:13:26;5.80;;;1.10;;
17965;SDS011;9108;53.204;10.424;2023-01-01T11:15:54;5.83;;;1.10;;
17965;SDS011;9108;53.204;10.424;2023-01-01T11:18:26;4.77;;;1.00;;
17965;SDS011;9108;53.204;10.424;2023-01-01T11:20:59;9.80;;;1.20;;
17965;SDS011;9108;53.204;10.424;2023-01-01T11:23:29;6.27;;;1.00;;
17965;SDS011;9108;53.204;10.424;2023-01-01T11:25:59;4.90;;;1.60;;
17965;SDS011;9108;53.204;10.424;2023-01-01T11:28:26;7.73;;;1.47;;
17965;SDS011;9108;53.204;10.424;2023-01-01T11:31:06;4.50;;;1.00;;
17965;SDS011;9108;53.204;10.424;2023-01-01T11:33:36;8.87;;;1.90;;
17965;SDS011;9108;53.204;10.424;2023-01-01T11:36:05;5.53;;;1.23;;
17965;SDS011;9108;53.204;10.424;2023-01-01T11:38:34;6.00;;;1.40;;
17965;SDS011;9108;53.204;10.424;2023-01-01T11:41:02;4.17;;;0.73;;
17965;SDS011;9108;53.204;10.424;2023-01-01T11:43:32;4.60;;;1.10;;
17965;SDS011;9108;53.204;10.424;2023-01-01T11:46:04;2.10;;;0.90;;
17965;SDS011;9108;53.204;10.424;2023-01-01T11:48:32;3.00;;;1.00;;
17965;SDS011;9108;53.204;10.424;2023-01-01T11:51:00;4.50;;;0.93;;
17965;SDS011;9108;53.204;10.424;2023-01-01T11:53:29;4.80;;;1.20;;
17965;SDS011;9108;53.204;10.424;2023-01-01T11:59:17;4.50;;;0.90;;
17965;SDS011;9108;53.204;10.424;2023-01-01T12:02:00;6.03;;;1.40;;
17965;SDS011;9108;53.204;10.424;2023-01-01T12:04:35;8.00;;;1.30;;
17965;SDS011;9108;53.204;10.424;2023-01-01T12:07:07;8.03;;;1.30;;
17965;SDS011;9108;53.204;10.424;2023-01-01T12:09:38;4.87;;;1.00;;
17965;SDS011;9108;53.204;10.424;2023-01-01T12:12:08;4.53;;;0.93;;
17965;SDS011;9108;53.204;10.424;2023-01-01T12:14:39;4.57;;;1.00;;
17965;SDS011;9108;53.204;10.424;2023-01-01T12:17:09;5.07;;;1.03;;
17965;SDS011;9108;53.204;10.424;2023-01-01T12:19:39;4.13;;;1.10;;
17965;SDS011;9108;53.204;10.424;2023-01-01T12:22:07;7.10;;;1.20;;
17965;SDS011;9108;53.204;10.424;2023-01-01T12:24:38;7.17;;;1.30;;
17965;SDS011;9108;53.204;10.424;2023-01-01T12:27:14;7.17;;;1.03;;
17965;SDS011;9108;53.204;10.424;2023-01-01T12:29:53;4.83;;;1.03;;
17965;SDS011;9108;53.204;10.424;2023-01-01T12:32:26;5.43;;;1.03;;
17965;SDS011;9108;53.204;10.424;2023-01-01T12:34:57;6.87;;;1.40;;
17965;SDS011;9108;53.204;10.424;2023-01-01T12:37:31;4.17;;;0.93;;
17965;SDS011;9108;53.204;10.424;2023-01-01T12:42:51;5.47;;;0.90;;
17965;SDS011;9108;53.204;10.424;2023-01-01T12:45:35;9.30;;;1.33;;
17965;SDS011;9108;53.204;10.424;2023-01-01T12:48:10;2.70;;;0.93;;
17965;SDS011;9108;53.204;10.424;2023-01-01T12:50:46;6.43;;;0.83;;
17965;SDS011;9108;53.204;10.424;2023-01-01T12:53:19;2.50;;;1.03;;
17965;SDS011;9108;53.204;10.424;2023-01-01T12:58:33;4.60;;;1.00;;
17965;SDS011;9108;53.204;10.424;2023-01-01T13:01:04;5.00;;;1.20;;
17965;SDS011;9108;53.204;10.424;2023-01-01T13:03:35;5.73;;;1.13;;
17965;SDS011;9108;53.204;10.424;2023-01-01T13:06:03;5.47;;;1.00;;
17965;SDS011;9108;53.204;10.424;2023-01-01T13:08:30;6.70;;;0.90;;
17965;SDS011;9108;53.204;10.424;2023-01-01T13:10:59;5.37;;;0.80;;
17965;SDS011;9108;53.204;10.424;2023-01-01T13:13:28;7.30;;;1.23;;
17965;SDS011;9108;53.204;10.424;2023-01-01T13:15:56;4.40;;;0.93;;
17965;SDS011;9108;53.204;10.424;2023-01-01T13:18:28;8.77;;;1.30;;
17965;SDS011;9108;53.204;10.424;2023-01-01T13:20:59;5.93;;;0.90;;
17965;SDS011;9108;53.204;10.424;2023-01-01T13:23:43;8.43;;;1.20;;
17965;SDS011;9108;53.204;10.424;2023-01-01T13:32:06;4.93;;;1.00;;
17965;SDS011;9108;53.204;10.424;2023-01-01T13:37:42;6.87;;;1.03;;
17965;SDS011;9108;53.204;10.424;2023-01-01T13:40:28;5.00;;;1.00;;
17965;SDS011;9108;53.204;10.424;2023-01-01T13:43:04;5.90;;;1.20;;
17965;SDS011;9108;53.204;10.424;2023-01-01T13:45:33;6.67;;;1.10;;
17965;SDS011;9108;53.204;10.424;2023-01-01T13:48:08;7.20;;;1.47;;
17965;SDS011;9108;53.204;10.424;2023-01-01T13:50:40;4.70;;;1.10;;
17965;SDS011;9108;53.204;10.424;2023-01-01T13:53:16;7.00;;;1.03;;
17965;SDS011;9108;53.204;10.424;2023-01-01T13:56:03;4.50;;;1.00;;
17965;SDS011;9108;53.204;10.424;2023-01-01T13:58:35;6.60;;;1.23;;
17965;SDS011;9108;53.204;10.424;2023-01-01T14:03:55;9.47;;;1.30;;
17965;SDS011;9108;53.204;10.424;2023-01-01T14:06:26;4.23;;;1.00;;
17965;SDS011;9108;53.204;10.424;2023-01-01T14:09:01;5.80;;;1.30;;
17965;SDS011;9108;53.204;10.424;2023-01-01T14:11:28;6.83;;;1.17;;
17965;SDS011;9108;53.204;10.424;2023-01-01T14:13:55;6.30;;;1.13;;
17965;SDS011;9108;53.204;10.424;2023-01-01T14:16:23;8.03;;;1.30;;
17965;SDS011;9108;53.204;10.424;2023-01-01T14:18:51;4.30;;;1.20;;
17965;SDS011;9108;53.204;10.424;2023-01-01T14:21:20;9.70;;;1.10;;
17965;SDS011;9108;53.204;10.424;2023-01-01T14:23:47;6.87;;;1.43;;
17965;SDS011;9108;53.204;10.424;2023-01-01T14:26:17;5.93;;;1.20;;
17965;SDS011;9108;53.204;10.424;2023-01-01T14:28:45;8.33;;;1.40;;
17965;SDS011;9108;53.204;10.424;2023-01-01T14:31:12;8.90;;;1.30;;
17965;SDS011;9108;53.204;10.424;2023-01-01T14:33:41;6.80;;;1.43;;
17965;SDS011;9108;53.204;10.424;2023-01-01T14:36:13;12.20;;;1.47;;
17965;SDS011;9108;53.204;10.424;2023-01-01T14:38:43;6.03;;;1.30;;
17965;SDS011;9108;53.204;10.424;2023-01-01T14:41:11;5.47;;;1.10;;
17965;SDS011;9108;53.204;10.424;2023-01-01T14:43:41;7.90;;;1.50;;
17965;SDS011;9108;53.204;10.424;2023-01-01T14:46:12;7.70;;;1.57;;
17965;SDS011;9108;53.204;10.424;2023-01-01T14:48:41;8.43;;;1.60;;
17965;SDS011;9108;53.204;10.424;2023-01-01T14:51:10;7.63;;;1.60;;
17965;SDS011;9108;53.204;10.424;2023-01-01T14:53:37;8.57;;;1.90;;
17965;SDS011;9108;53.204;10.424;2023-01-01T14:56:05;9.17;;;1.67;;
17965;SDS011;9108;53.204;10.424;2023-01-01T14:58:33;10.67;;;1.80;;
17965;SDS011;9108;53.204;10.424;2023-01-01T15:01:15;10.50;;;1.53;;
17965;SDS011;9108;53.204;10.424;2023-01-01T15:03:56;9.83;;;1.70;;
17965;SDS011;9108;53.204;10.424;2023-01-01T15:06:23;12.50;;;1.97;;
17965;SDS011;9108;53.204;10.424;2023-01-01T15:08:51;9.10;;;1.90;;
17965;SDS011;9108;53.204;10.424;2023-01-01T15:11:18;11.30;;;1.80;;
17965;SDS011;9108;53.204;10.424;2023-01-01T15:13:52;15.60;;;1.73;;